createdAt,value
2022-11-14T00:01:28.996Z,41.9
2022-11-14T00:07:54.012Z,41.98
2022-11-14T00:14:16.281Z,41.71
2022-11-14T00:20:35.903Z,41.97
2022-11-14T00:27:02.435Z,41.61
2022-11-14T00:33:22.288Z,41.95
2022-11-14T00:39:50.365Z,41.87
2022-11-14T00:46:15.930Z,41.86
2022-11-14T00:52:39.815Z,41.9
2022-11-14T00:59:01.160Z,41.66
2022-11-14T01:05:23.965Z,41.9
2022-11-14T01:11:49.962Z,41.95
2022-11-14T01:18:16.316Z,41.98
2022-11-14T01:24:43.001Z,41.88
2022-11-14T01:31:12.892Z,41.9
2022-11-14T01:37:36.428Z,41.91
2022-11-14T01:44:10.378Z,41.86
2022-11-14T01:51:00.385Z,41.68
2022-11-14T01:57:47.986Z,41.88
2022-11-14T02:04:29.034Z,41.86
2022-11-14T02:11:04.910Z,41.86
2022-11-14T02:17:41.058Z,41.77
2022-11-14T02:24:06.967Z,41.8
2022-11-14T02:30:32.351Z,41.91
2022-11-14T02:37:00.356Z,41.88
2022-11-14T02:43:26.920Z,41.88
2022-11-14T02:49:49.242Z,41.85
2022-11-14T02:56:10.169Z,41.73
2022-11-14T03:02:29.062Z,41.89
2022-11-14T03:08:51.615Z,41.79
2022-11-14T03:15:15.959Z,41.82
2022-11-14T03:21:43.366Z,41.69
2022-11-14T03:28:12.948Z,41.81
2022-11-14T03:34:42.073Z,41.67
2022-11-14T03:41:05.053Z,41.85
2022-11-14T03:47:31.828Z,41.69
2022-11-14T03:53:58.055Z,41.79
2022-11-14T04:00:24.971Z,41.66
2022-11-14T04:06:59.092Z,41.68
2022-11-14T04:13:31.478Z,41.67
2022-11-14T04:19:56.536Z,41.67
2022-11-14T04:26:25.033Z,41.73
2022-11-14T04:32:44.072Z,41.7
2022-11-14T04:39:09.095Z,41.66
2022-11-14T04:45:35.005Z,41.84
2022-11-14T04:52:06.964Z,41.76
2022-11-14T04:58:39.023Z,41.69
2022-11-14T05:05:04.895Z,41.74
2022-11-14T05:11:29.618Z,41.64
2022-11-14T05:17:51.904Z,41.8
2022-11-14T05:24:11.905Z,41.66
2022-11-14T05:30:33.213Z,41.78
2022-11-14T05:36:55.065Z,41.58
2022-11-14T05:43:14.506Z,41.58
2022-11-14T05:49:36.027Z,41.69
2022-11-14T05:56:10.905Z,40.84
2022-11-14T06:02:36.002Z,39.64
2022-11-14T06:09:01.051Z,39.01
2022-11-14T06:15:36.000Z,38.53
2022-11-14T06:22:02.964Z,38.51
2022-11-14T06:28:23.627Z,38.21
2022-11-14T06:34:52.123Z,38.06
2022-11-14T06:41:11.991Z,37.79
2022-11-14T06:47:46.192Z,37.81
2022-11-14T06:54:14.253Z,37.88
2022-11-14T07:00:40.454Z,38.03
2022-11-14T07:07:09.163Z,38.22
2022-11-14T07:13:46.183Z,38.19
2022-11-14T07:20:19.319Z,38.4
2022-11-14T07:26:52.484Z,38.54
2022-11-14T07:33:13.052Z,38.62
2022-11-14T07:39:39.916Z,38.79
2022-11-14T07:46:11.972Z,38.82
2022-11-14T07:52:40.516Z,39
2022-11-14T07:59:18.291Z,39.09
2022-11-14T08:05:46.370Z,39.14
2022-11-14T08:12:11.261Z,39.24
2022-11-14T08:18:38.961Z,39.38
2022-11-14T08:25:00.072Z,39.51
2022-11-14T08:31:25.099Z,39.57
2022-11-14T08:37:51.463Z,39.57
2022-11-14T08:44:16.999Z,39.63
2022-11-14T08:50:47.020Z,39.56
2022-11-14T08:57:07.041Z,39.76
2022-11-14T09:03:32.659Z,39.56
2022-11-14T09:09:54.133Z,39.88
2022-11-14T09:16:16.190Z,39.81
2022-11-14T09:22:37.207Z,39.73
2022-11-14T09:28:58.064Z,39.74
2022-11-14T09:35:32.519Z,39.87
2022-11-14T09:42:17.268Z,39.96
2022-11-14T09:49:14.240Z,40.22
2022-11-14T09:56:18.125Z,40.2
2022-11-14T10:03:00.104Z,40.21
2022-11-14T10:10:12.083Z,40.24
2022-11-14T10:17:15.966Z,40.42
2022-11-14T10:24:25.258Z,40.34
2022-11-14T10:31:25.393Z,40.47
2022-11-14T10:38:39.584Z,40.67
2022-11-14T10:45:42.517Z,40.47
2022-11-14T10:52:49.157Z,40.66
2022-11-14T10:59:30.083Z,40.53
2022-11-14T11:06:25.117Z,40.71
2022-11-14T11:13:20.270Z,40.62
2022-11-14T11:20:32.009Z,40.64
2022-11-14T11:27:14.174Z,40.67
2022-11-14T11:33:57.162Z,40.61
2022-11-14T11:40:42.189Z,40.55
2022-11-14T11:47:36.977Z,40.43
2022-11-14T11:54:28.194Z,40.4
2022-11-14T12:01:21.295Z,40.34
2022-11-14T12:08:08.086Z,40.49
2022-11-14T12:15:11.644Z,40.38
2022-11-14T12:22:11.153Z,40.67
2022-11-14T12:29:03.531Z,40.73
2022-11-14T12:36:02.311Z,40.69
2022-11-14T12:43:03.241Z,41.1
2022-11-14T12:50:17.467Z,41.16
2022-11-14T12:58:22.286Z,41.58
2022-11-14T13:06:27.087Z,41.7
2022-11-14T13:14:35.716Z,41.34
2022-11-14T13:22:35.434Z,41.5
2022-11-14T13:30:23.786Z,41.65
2022-11-14T13:38:15.283Z,41.58
2022-11-14T13:47:00.334Z,39.88
2022-11-14T13:54:03.417Z,39.99
2022-11-14T14:01:07.173Z,39.43
2022-11-14T14:08:22.741Z,39.39
2022-11-14T14:15:30.974Z,39.85
2022-11-14T14:22:47.922Z,39.56
2022-11-14T14:30:06.674Z,39.05
2022-11-14T14:37:03.097Z,38.96
2022-11-14T14:44:08.932Z,38.88
2022-11-14T14:51:58.447Z,39.8
2022-11-14T15:00:06.719Z,40.08
2022-11-14T15:08:24.748Z,40.42
2022-11-14T15:16:21.427Z,40.31
2022-11-14T15:24:39.256Z,40.28
2022-11-14T15:32:47.554Z,40.51
2022-11-14T15:40:54.685Z,41.11
2022-11-14T15:48:42.300Z,40.97
2022-11-14T15:56:14.517Z,41.17
2022-11-14T16:04:00.527Z,41.06
2022-11-14T16:11:07.952Z,41.31
2022-11-14T16:18:18.498Z,40.79
2022-11-14T16:25:09.552Z,41.11
2022-11-14T16:32:16.552Z,41.04
2022-11-14T16:39:04.645Z,40.95
2022-11-14T16:46:04.468Z,41.06
2022-11-14T16:53:14.285Z,41.03
2022-11-14T17:00:34.313Z,40.99
2022-11-14T17:07:41.541Z,41.03
2022-11-14T17:14:48.087Z,41.05
2022-11-14T17:21:51.461Z,41.21
2022-11-14T17:28:56.092Z,41.02
2022-11-14T17:35:59.114Z,41.27
2022-11-14T17:42:55.419Z,41.18
2022-11-14T17:50:18.723Z,41.12
2022-11-14T17:57:34.748Z,41.08
2022-11-14T18:04:47.214Z,40.97
2022-11-14T18:11:49.959Z,40.91
2022-11-14T18:18:50.660Z,41.02
2022-11-14T18:25:47.347Z,41.17
2022-11-14T18:32:44.691Z,41.04
2022-11-14T18:39:47.300Z,41.11
2022-11-14T18:46:46.109Z,41.31
2022-11-14T18:53:40.381Z,41.3
2022-11-14T19:00:49.382Z,41.28
2022-11-14T19:07:48.898Z,41.31
2022-11-14T19:14:47.963Z,40.82
2022-11-14T19:21:46.424Z,41.11
2022-11-14T19:28:49.663Z,41.21
2022-11-14T19:35:51.724Z,41.08
2022-11-14T19:42:51.337Z,41.31
2022-11-14T19:49:52.672Z,41.31
2022-11-14T19:57:01.170Z,41.66
2022-11-14T20:03:53.652Z,41.42
2022-11-14T20:11:03.723Z,41.37
2022-11-14T20:18:16.545Z,41.37
2022-11-14T20:25:25.662Z,41.4
2022-11-14T20:32:29.708Z,41.57
2022-11-14T20:39:24.514Z,41.3
2022-11-14T20:46:18.835Z,41.22
2022-11-14T20:53:27.554Z,41.35
2022-11-14T21:00:30.344Z,41.37
2022-11-14T21:07:31.887Z,41.25
2022-11-14T21:14:43.360Z,41.25
2022-11-14T21:21:38.778Z,41.1
2022-11-14T21:28:37.691Z,40.73
2022-11-14T21:35:52.708Z,40.72
2022-11-14T21:42:47.147Z,40.78
2022-11-14T21:50:01.720Z,40.68
2022-11-14T21:57:10.143Z,40.82
2022-11-14T22:04:19.437Z,40.72
2022-11-14T22:11:35.717Z,40.94
2022-11-14T22:18:30.574Z,40.57
2022-11-14T22:25:45.248Z,40.57
2022-11-14T22:32:55.013Z,40.45
2022-11-14T22:39:57.855Z,40.41
2022-11-14T22:47:03.208Z,40.42
2022-11-14T22:54:16.536Z,40.28
2022-11-14T23:01:32.683Z,40.36
2022-11-14T23:08:32.319Z,40.33
2022-11-14T23:15:42.882Z,40.41
2022-11-14T23:22:40.518Z,40.56
2022-11-14T23:30:00.105Z,40.55
2022-11-14T23:37:21.087Z,40.57
2022-11-14T23:44:13.015Z,40.48
2022-11-14T23:50:48.663Z,40.59
2022-11-14T23:58:02.272Z,40.67
